KRCR/RCR METAR and TAF weather

Enter ICAO airport designator
Station Type Date Time Source
KRCR METAR 2020/10/20 17:15 UTC NOAA

KRCR 201715Z AUTO 07009KT 10SM CLR 13/04 A3024 RMK AO2


Station Type Date Time Source
KRCR Decoded METAR 2020/10/20 17:15 UTC NOAA

Station name not available
Oct 20, 2020 - 01:15 PM EDT / 2020.10.20 1715 UTC
Wind: from the ENE (070 degrees) at 10 MPH (9 KT):0
Visibility: 10 mile(s):0
Sky conditions: clear
Temperature: 55 F (13 C)
Dew Point: 39 F (4 C)
Relative Humidity: 54%
Pressure (altimeter): 30.24 in. Hg (1024 hPa)
ob: KRCR 201715Z AUTO 07009KT 10SM CLR 13/04 A3024 RMK AO2
cycle: 17

Station Type Date Time Source
KRCR TAF UTC NOAA

Error!

Example: see airport list